Time;durP1;ratioP1;P1;durP2;ratioP2;P2;SDS_P1;SDS_P2;PMS_P1;PMS_P2;Temp;Humidity;BMP_temperature;BMP_pressure;BME280_temperature;BME280_humidity;BME280_pressure;Samples;Min_cycle;Max_cycle;Signal;HPM_P1;HPM_P2
2024/04/09 00:00:31;;;;;;;7.43;4.33;;;19.70;1.00;;;;;;5240428;27;20229;-70
2024/04/09 00:02:57;;;;;;;9.20;5.10;;;19.70;1.00;;;;;;5244063;27;20505;-70
2024/04/09 00:05:27;;;;;;;11.07;4.60;;;19.70;1.00;;;;;;5244229;27;20236;-70
2024/04/09 00:07:52;;;;;;;7.43;4.37;;;19.70;1.00;;;;;;5245632;27;20229;-70
2024/04/09 00:10:19;;;;;;;7.40;4.67;;;19.70;1.00;;;;;;5245125;27;20508;-70
2024/04/09 00:12:46;;;;;;;6.40;4.90;;;19.70;1.00;;;;;;5244514;27;20305;-73
2024/04/09 00:15:12;;;;;;;8.37;4.73;;;19.70;1.00;;;;;;5245087;27;20982;-72
2024/04/09 00:17:55;;;;;;;4.80;3.70;;;19.70;1.00;;;;;;5244762;27;20575;-72
2024/04/09 00:20:24;;;;;;;6.40;5.03;;;19.70;1.00;;;;;;5244834;27;20228;-70
2024/04/09 00:22:58;;;;;;;5.40;3.90;;;19.90;1.00;;;;;;5244266;27;20564;-72
2024/04/09 00:25:24;;;;;;;9.17;5.17;;;19.90;1.00;;;;;;5244795;27;20464;-71
2024/04/09 00:27:53;;;;;;;9.70;4.90;;;20.00;1.00;;;;;;5244818;27;20476;-72
2024/04/09 00:30:22;;;;;;;8.83;4.90;;;20.00;1.00;;;;;;5242994;27;20888;-71
2024/04/09 00:32:51;;;;;;;10.40;4.50;;;20.00;1.00;;;;;;5257512;27;20517;-72
2024/04/09 00:35:23;;;;;;;11.13;5.47;;;20.00;1.00;;;;;;5278278;27;20977;-72
2024/04/09 00:37:57;;;;;;;6.40;5.27;;;20.00;1.00;;;;;;5278166;27;20482;-71
2024/04/09 00:40:24;;;;;;;9.60;5.10;;;19.90;1.00;;;;;;5278151;27;20599;-71
2024/04/09 00:42:52;;;;;;;8.13;4.40;;;19.90;1.00;;;;;;5277472;27;20529;-72
2024/04/09 00:45:19;;;;;;;7.37;4.43;;;19.80;1.00;;;;;;5278401;27;20455;-72
2024/04/09 00:47:48;;;;;;;9.10;5.03;;;19.80;1.00;;;;;;5276518;27;20482;-72
2024/04/09 00:50:15;;;;;;;5.53;4.83;;;19.70;1.00;;;;;;5278125;27;20495;-71
2024/04/09 00:52:42;;;;;;;5.23;4.40;;;19.70;1.00;;;;;;5277387;27;20529;-72
2024/04/09 00:55:09;;;;;;;7.47;5.13;;;19.70;1.00;;;;;;5278193;27;20462;-72
2024/04/09 00:57:37;;;;;;;5.23;4.23;;;19.70;1.00;;;;;;5277968;27;20470;-72
2024/04/09 01:00:05;;;;;;;5.83;4.50;;;19.70;1.00;;;;;;5277792;27;20500;-72
2024/04/09 01:02:32;;;;;;;9.77;4.30;;;19.60;1.00;;;;;;5277252;27;20470;-72
2024/04/09 01:04:58;;;;;;;6.23;4.43;;;19.50;1.00;;;;;;5247049;27;20995;-72
2024/04/09 01:07:25;;;;;;;5.90;4.40;;;19.40;1.00;;;;;;5242279;27;20533;-72
2024/04/09 01:09:50;;;;;;;4.80;3.97;;;19.40;1.00;;;;;;5242391;27;20952;-73
2024/04/09 01:12:16;;;;;;;8.63;4.60;;;19.40;1.00;;;;;;5256877;27;20587;-73
2024/04/09 01:14:41;;;;;;;6.70;4.80;;;19.30;1.00;;;;;;5277007;27;20227;-72
2024/04/09 01:17:07;;;;;;;7.73;3.70;;;19.30;1.00;;;;;;5277692;27;20597;-72
2024/04/09 01:19:33;;;;;;;5.10;3.87;;;19.30;1.00;;;;;;5276013;27;20704;-72
2024/04/09 01:21:59;;;;;;;17.93;4.77;;;19.30;1.00;;;;;;5260560;27;20588;-72
2024/04/09 01:24:25;;;;;;;5.97;4.30;;;19.30;1.00;;;;;;5243529;27;20256;-73
2024/04/09 01:26:54;;;;;;;10.93;5.70;;;19.10;1.00;;;;;;5243641;27;20895;-71
2024/04/09 01:29:21;;;;;;;5.90;4.03;;;19.10;1.00;;;;;;5243959;27;20224;-71
2024/04/09 01:31:48;;;;;;;10.70;4.13;;;19.10;1.00;;;;;;5255580;27;20530;-72
2024/04/09 01:34:15;;;;;;;14.63;4.27;;;19.00;1.00;;;;;;5277105;27;20803;-71
2024/04/09 01:36:41;;;;;;;5.53;3.90;;;19.00;1.00;;;;;;5277180;27;20486;-72
2024/04/09 01:39:08;;;;;;;8.40;4.77;;;18.90;1.00;;;;;;5275400;27;20455;-72
2024/04/09 01:41:36;;;;;;;7.83;4.40;;;18.90;1.00;;;;;;5268555;27;20245;-72
2024/04/09 01:44:02;;;;;;;4.90;3.53;;;18.90;1.00;;;;;;5244016;27;20523;-71
2024/04/09 01:46:27;;;;;;;8.27;4.00;;;18.90;1.00;;;;;;5243734;27;20874;-72
2024/04/09 01:48:53;;;;;;;8.10;4.07;;;18.90;1.00;;;;;;5242175;27;20296;-71
2024/04/09 01:51:19;;;;;;;6.67;3.70;;;18.90;1.00;;;;;;5248281;27;20248;-71
2024/04/09 01:53:49;;;;;;;6.23;3.70;;;18.80;1.00;;;;;;5277039;27;20224;-71
2024/04/09 01:56:18;;;;;;;6.30;3.97;;;18.80;1.00;;;;;;5269074;27;20469;-70
2024/04/09 01:58:46;;;;;;;5.93;4.33;;;18.80;1.00;;;;;;5244046;27;20512;-71
2024/04/09 02:01:11;;;;;;;7.73;4.40;;;18.70;1.00;;;;;;5244316;27;20538;-72
2024/04/09 02:03:38;;;;;;;4.70;3.80;;;18.70;1.00;;;;;;5276871;27;20991;-72
2024/04/09 02:06:08;;;;;;;6.20;4.80;;;18.60;1.00;;;;;;5245423;27;20315;-73
2024/04/09 02:08:34;;;;;;;9.40;5.60;;;18.60;1.00;;;;;;5243684;27;20509;-73
2024/04/09 02:11:01;;;;;;;10.40;4.50;;;18.50;1.00;;;;;;5243476;27;20452;-73
2024/04/09 02:13:29;;;;;;;4.80;4.30;;;18.50;1.00;;;;;;5276674;27;20521;-74
2024/04/09 02:15:59;;;;;;;12.43;4.60;;;18.50;1.00;;;;;;5276940;27;20478;-70
2024/04/09 02:18:25;;;;;;;7.97;4.50;;;18.50;1.00;;;;;;5282702;27;20454;-71
2024/04/09 02:20:50;;;;;;;4.57;3.93;;;18.60;1.00;;;;;;5295325;27;20507;-73
2024/04/09 02:23:16;;;;;;;9.83;4.50;;;18.60;1.00;;;;;;5264388;27;20241;-73
2024/04/09 02:25:43;;;;;;;4.83;4.33;;;18.60;1.00;;;;;;5259053;27;20263;-72
2024/04/09 02:28:08;;;;;;;7.97;5.10;;;18.50;1.00;;;;;;5259221;27;20225;-73
2024/04/09 02:30:34;;;;;;;7.67;4.00;;;18.50;1.00;;;;;;5244537;27;20541;-73
2024/04/09 02:32:59;;;;;;;7.10;3.90;;;18.40;1.00;;;;;;5242995;27;20311;-74
2024/04/09 02:35:25;;;;;;;4.77;4.30;;;18.40;1.00;;;;;;5243354;27;20225;-75
2024/04/09 02:37:51;;;;;;;5.33;3.93;;;18.40;1.00;;;;;;5243102;27;20617;-75
2024/04/09 02:40:17;;;;;;;5.80;4.00;;;18.40;1.00;;;;;;5250944;27;20240;-74
2024/04/09 02:42:43;;;;;;;7.57;4.30;;;18.40;1.00;;;;;;5276703;27;20531;-74
2024/04/09 02:45:09;;;;;;;8.33;4.40;;;18.30;1.00;;;;;;5276403;27;20244;-74
2024/04/09 02:47:35;;;;;;;7.67;4.47;;;18.10;1.00;;;;;;5276725;27;20558;-74
2024/04/09 02:50:02;;;;;;;5.93;4.10;;;18.00;1.00;;;;;;5272825;27;20451;-74
2024/04/09 02:52:27;;;;;;;10.60;4.57;;;17.80;1.00;;;;;;5240782;27;20523;-74
2024/04/09 02:54:53;;;;;;;14.00;4.43;;;17.70;1.00;;;;;;5243274;27;20542;-74
2024/04/09 02:57:18;;;;;;;30.50;6.17;;;17.50;1.00;;;;;;5242943;27;20240;-72
2024/04/09 02:59:44;;;;;;;8.43;5.17;;;17.40;1.00;;;;;;5242621;27;20225;-71
2024/04/09 03:02:09;;;;;;;12.00;5.30;;;17.30;1.00;;;;;;5242462;27;20225;-71
2024/04/09 03:04:35;;;;;;;14.93;4.70;;;17.30;1.00;;;;;;5242659;27;20232;-71
2024/04/09 03:07:02;;;;;;;6.93;5.30;;;17.20;1.00;;;;;;5242854;27;20233;-71
2024/04/09 03:09:28;;;;;;;8.00;4.43;;;17.10;1.00;;;;;;5241436;27;20263;-70
2024/04/09 03:11:54;;;;;;;6.67;4.90;;;16.90;1.00;;;;;;5253522;27;20467;-69
2024/04/09 03:14:19;;;;;;;9.63;4.80;;;16.90;1.00;;;;;;5275898;27;21042;-71
2024/04/09 03:16:45;;;;;;;5.60;5.00;;;16.80;1.00;;;;;;5274278;27;20286;-71
2024/04/09 03:19:11;;;;;;;11.33;4.93;;;16.70;1.00;;;;;;5276037;27;20251;-71
2024/04/09 03:21:37;;;;;;;8.83;4.63;;;16.60;1.00;;;;;;5276017;27;20227;-71
2024/04/09 03:24:03;;;;;;;8.60;5.33;;;16.50;1.00;;;;;;5275957;27;20454;-71
2024/04/09 03:26:28;;;;;;;5.90;3.50;;;16.50;1.00;;;;;;5276227;27;20311;-71
2024/04/09 03:28:54;;;;;;;18.20;4.53;;;16.40;1.00;;;;;;5276032;27;21139;-71
2024/04/09 03:31:19;;;;;;;5.60;3.67;;;16.40;1.00;;;;;;5276035;27;20231;-71
2024/04/09 03:33:45;;;;;;;6.93;4.00;;;16.30;1.00;;;;;;5276018;27;20270;-71
2024/04/09 03:36:10;;;;;;;4.33;3.33;;;16.20;1.00;;;;;;5276714;27;20285;-71
2024/04/09 03:38:37;;;;;;;10.03;5.03;;;16.20;1.00;;;;;;5279534;27;20717;-71
2024/04/09 03:41:04;;;;;;;7.43;4.50;;;16.20;1.00;;;;;;5277519;27;20641;-71
2024/04/09 03:43:30;;;;;;;6.63;4.30;;;16.20;1.00;;;;;;5279005;27;20503;-70
2024/04/09 03:46:13;;;;;;;5.27;4.20;;;16.20;1.00;;;;;;5278931;27;20537;-71
2024/04/09 03:48:43;;;;;;;8.67;4.20;;;16.30;1.00;;;;;;5279403;27;20955;-70
2024/04/09 03:51:09;;;;;;;5.90;3.77;;;16.30;1.00;;;;;;5256551;27;20529;-70
2024/04/09 03:53:34;;;;;;;8.70;5.00;;;16.30;1.00;;;;;;5279007;27;20993;-71
2024/04/09 03:56:02;;;;;;;5.00;4.07;;;16.30;1.00;;;;;;5277303;27;20550;-71
2024/04/09 03:58:33;;;;;;;7.53;4.80;;;16.30;1.00;;;;;;5279125;27;20630;-70
2024/04/09 04:01:01;;;;;;;10.90;4.63;;;16.30;1.00;;;;;;5278901;27;20545;-71
2024/04/09 04:03:28;;;;;;;16.23;4.27;;;16.40;1.00;;;;;;5276966;27;20507;-70
2024/04/09 04:05:59;;;;;;;11.23;4.50;;;16.40;1.00;;;;;;5278552;27;20526;-70
2024/04/09 04:08:36;;;;;;;6.50;4.60;;;16.40;1.00;;;;;;5278532;27;20451;-70
2024/04/09 04:11:06;;;;;;;7.77;3.97;;;16.40;1.00;;;;;;5248596;27;20479;-70
2024/04/09 04:13:34;;;;;;;10.43;5.30;;;16.30;1.00;;;;;;5244693;27;20542;-70
2024/04/09 04:16:05;;;;;;;9.57;5.17;;;16.30;1.00;;;;;;5244975;27;20589;-70
2024/04/09 04:18:37;;;;;;;17.03;6.33;;;16.30;1.00;;;;;;5245239;27;20448;-70
2024/04/09 04:21:04;;;;;;;20.13;6.27;;;16.30;1.00;;;;;;5245027;27;20445;-72
2024/04/09 04:23:30;;;;;;;18.40;6.83;;;16.40;1.00;;;;;;5244700;27;20508;-71
2024/04/09 04:26:03;;;;;;;13.87;6.20;;;16.40;1.00;;;;;;5244691;27;20995;-72
2024/04/09 04:28:34;;;;;;;11.33;6.50;;;16.50;1.00;;;;;;5243213;27;20580;-72
2024/04/09 04:31:01;;;;;;;10.50;5.70;;;16.70;1.00;;;;;;5272879;27;20988;-72
2024/04/09 04:33:27;;;;;;;10.73;5.00;;;16.80;1.00;;;;;;5278411;27;20451;-71
2024/04/09 04:35:53;;;;;;;15.30;7.50;;;17.00;1.00;;;;;;5246831;27;20544;-72
2024/04/09 04:38:19;;;;;;;14.40;7.10;;;17.00;1.00;;;;;;5244804;27;20554;-71
2024/04/09 04:40:45;;;;;;;11.93;6.30;;;17.10;1.00;;;;;;5268669;27;20519;-72
2024/04/09 04:43:14;;;;;;;14.90;7.17;;;17.20;1.00;;;;;;5276861;27;20224;-72
2024/04/09 04:45:44;;;;;;;9.77;5.80;;;17.40;1.00;;;;;;5276142;27;20511;-72
2024/04/09 04:48:10;;;;;;;16.97;7.60;;;17.40;1.00;;;;;;5275498;27;20510;-72
2024/04/09 04:50:37;;;;;;;15.20;7.47;;;17.40;1.00;;;;;;5256826;27;20472;-72
2024/04/09 04:53:03;;;;;;;10.70;6.23;;;17.40;1.00;;;;;;5244738;27;20456;-71
2024/04/09 04:55:29;;;;;;;16.17;6.60;;;17.40;1.00;;;;;;5244293;27;20452;-72
2024/04/09 04:57:55;;;;;;;15.07;6.50;;;17.50;1.00;;;;;;5244535;27;20999;-72
2024/04/09 05:00:21;;;;;;;9.27;5.97;;;17.60;1.00;;;;;;5262960;27;20523;-74
2024/04/09 05:02:48;;;;;;;18.13;5.83;;;17.50;1.00;;;;;;5277696;27;20223;-72
2024/04/09 05:05:14;;;;;;;13.50;5.93;;;17.50;1.00;;;;;;5277788;27;20447;-74
2024/04/09 05:07:39;;;;;;;14.77;6.70;;;17.50;1.00;;;;;;5277880;27;20475;-74
2024/04/09 05:10:12;;;;;;;14.67;7.63;;;17.50;1.00;;;;;;5268001;27;20732;-74
2024/04/09 05:12:39;;;;;;;9.13;6.30;;;17.50;1.00;;;;;;5277125;27;20240;-75
2024/04/09 05:15:06;;;;;;;8.27;4.87;;;17.50;1.00;;;;;;5278871;27;20534;-74
2024/04/09 05:17:32;;;;;;;9.60;5.53;;;17.50;1.00;;;;;;5256448;27;20659;-72
2024/04/09 05:19:57;;;;;;;11.13;5.90;;;17.60;1.00;;;;;;5244763;27;20460;-73
2024/04/09 05:22:24;;;;;;;10.23;5.80;;;17.60;1.00;;;;;;5242233;27;20250;-73
2024/04/09 05:24:51;;;;;;;14.70;5.60;;;17.70;1.00;;;;;;5244466;27;20221;-74
2024/04/09 05:27:17;;;;;;;13.53;5.90;;;17.80;1.00;;;;;;5261177;27;20471;-73
2024/04/09 05:29:43;;;;;;;9.33;5.90;;;17.80;1.00;;;;;;5278317;27;20443;-73
2024/04/09 05:32:09;;;;;;;11.50;6.43;;;17.90;1.00;;;;;;5277264;27;20523;-73
2024/04/09 05:34:34;;;;;;;12.23;5.13;;;18.00;1.00;;;;;;5286289;27;20615;-73
2024/04/09 05:37:00;;;;;;;14.43;6.70;;;18.00;1.00;;;;;;5274960;27;20480;-73
2024/04/09 05:39:26;;;;;;;9.97;5.30;;;18.10;1.00;;;;;;5251723;27;20225;-73
2024/04/09 05:41:51;;;;;;;15.73;5.40;;;18.10;1.00;;;;;;5244976;27;20457;-73
2024/04/09 05:44:17;;;;;;;16.40;7.63;;;18.20;1.00;;;;;;5244453;27;20229;-76
2024/04/09 05:46:45;;;;;;;11.37;6.10;;;18.20;1.00;;;;;;5253835;27;20354;-76
2024/04/09 05:49:10;;;;;;;18.17;6.30;;;18.30;1.00;;;;;;5277405;27;20471;-72
2024/04/09 05:51:36;;;;;;;8.33;5.83;;;18.40;1.00;;;;;;5277460;27;20531;-71
2024/04/09 05:54:02;;;;;;;12.13;7.57;;;18.50;1.00;;;;;;5277188;27;20220;-71
2024/04/09 05:56:28;;;;;;;11.43;5.27;;;18.60;1.00;;;;;;5270611;27;20284;-71
2024/04/09 05:58:53;;;;;;;13.33;5.90;;;18.60;1.00;;;;;;5243584;27;20233;-71
2024/04/09 06:01:19;;;;;;;19.07;8.67;;;18.70;1.00;;;;;;5243520;27;20685;-72
2024/04/09 06:03:44;;;;;;;14.23;6.70;;;18.90;1.00;;;;;;5243619;27;20764;-73
2024/04/09 06:06:10;;;;;;;8.47;5.93;;;19.10;1.00;;;;;;5243455;27;20244;-72
2024/04/09 06:08:36;;;;;;;11.03;5.77;;;19.50;1.00;;;;;;5278195;27;20235;-71
2024/04/09 06:11:03;;;;;;;14.10;6.80;;;19.90;1.00;;;;;;5277219;27;20291;-71
2024/04/09 06:13:29;;;;;;;10.67;6.10;;;20.20;1.00;;;;;;5277030;27;20287;-71
2024/04/09 06:15:55;;;;;;;10.10;4.80;;;20.30;1.00;;;;;;5276739;27;20463;-71
2024/04/09 06:18:20;;;;;;;13.60;6.90;;;20.30;1.00;;;;;;5246310;27;21061;-71
2024/04/09 06:20:46;;;;;;;14.37;6.43;;;20.60;1.00;;;;;;5242232;27;20262;-70
2024/04/09 06:23:12;;;;;;;20.57;6.53;;;20.80;1.00;;;;;;5242905;27;20228;-70
2024/04/09 06:25:39;;;;;;;9.37;6.37;;;20.90;1.00;;;;;;5242914;27;20267;-70
2024/04/09 06:28:05;;;;;;;12.50;6.50;;;20.80;1.00;;;;;;5268868;27;20467;-70
2024/04/09 06:30:31;;;;;;;13.60;6.60;;;20.50;1.00;;;;;;5241562;27;20540;-69
2024/04/09 06:32:57;;;;;;;10.80;5.47;;;20.30;1.00;;;;;;5240750;27;20462;-70
2024/04/09 06:35:23;;;;;;;9.23;6.10;;;20.30;1.00;;;;;;5242686;27;20737;-70
2024/04/09 06:37:49;;;;;;;15.50;5.40;;;20.50;1.00;;;;;;5264526;27;20524;-69
2024/04/09 06:40:14;;;;;;;15.60;7.43;;;21.00;1.00;;;;;;5276412;27;20447;-70
2024/04/09 06:42:40;;;;;;;16.03;6.33;;;21.20;1.00;;;;;;5274721;27;20239;-69
2024/04/09 06:45:06;;;;;;;13.40;6.27;;;21.20;1.00;;;;;;5276390;27;20223;-70
2024/04/09 06:47:32;;;;;;;10.40;5.20;;;21.00;1.00;;;;;;5274112;27;20236;-69
2024/04/09 06:49:58;;;;;;;8.07;5.50;;;21.20;1.00;;;;;;5276827;27;20455;-70
2024/04/09 06:52:24;;;;;;;13.10;5.27;;;21.80;1.00;;;;;;5275476;27;20224;-69
2024/04/09 06:54:50;;;;;;;15.50;7.47;;;22.20;1.00;;;;;;5268775;27;20894;-69
2024/04/09 06:57:15;;;;;;;15.03;7.90;;;22.10;1.00;;;;;;5224711;27;20521;-70
2024/04/09 06:59:41;;;;;;;14.07;5.70;;;21.90;1.00;;;;;;5209286;27;20233;-70
2024/04/09 07:02:09;;;;;;;11.70;5.50;;;22.20;1.00;;;;;;5230304;27;20309;-70
2024/04/09 07:04:35;;;;;;;8.50;5.23;;;22.30;1.00;;;;;;5242062;27;20258;-70
2024/04/09 07:07:00;;;;;;;17.00;5.90;;;21.90;1.00;;;;;;5251904;27;20467;-70
2024/04/09 07:09:26;;;;;;;15.23;6.47;;;21.80;1.00;;;;;;5276138;27;20329;-70
2024/04/09 07:11:52;;;;;;;9.17;5.03;;;21.90;1.00;;;;;;5262361;27;20347;-70
2024/04/09 07:14:18;;;;;;;8.07;5.10;;;21.90;1.00;;;;;;5241410;27;20885;-70
2024/04/09 07:16:43;;;;;;;9.10;4.97;;;22.30;1.00;;;;;;5247039;27;20669;-69
2024/04/09 07:19:09;;;;;;;10.47;4.50;;;22.40;1.00;;;;;;5273497;27;20251;-70
2024/04/09 07:21:36;;;;;;;11.33;4.60;;;22.00;1.00;;;;;;5275830;27;20329;-70
2024/04/09 07:24:03;;;;;;;11.07;4.33;;;22.10;1.00;;;;;;5275381;27;20463;-70
2024/04/09 07:26:28;;;;;;;12.33;4.20;;;21.80;1.00;;;;;;5265536;27;20532;-69
2024/04/09 07:28:54;;;;;;;7.93;5.00;;;21.50;1.00;;;;;;5241947;27;21015;-70
2024/04/09 07:31:21;;;;;;;15.87;4.43;;;21.10;1.00;;;;;;5241967;27;20228;-71
2024/04/09 07:33:47;;;;;;;8.93;4.37;;;20.60;1.00;;;;;;5241887;27;20271;-70
2024/04/09 07:36:13;;;;;;;7.13;4.13;;;20.30;1.00;;;;;;5247433;27;20491;-70
2024/04/09 07:38:39;;;;;;;11.00;4.00;;;20.20;1.00;;;;;;5275394;27;20559;-70
2024/04/09 07:41:05;;;;;;;7.53;3.30;;;20.40;1.00;;;;;;5274722;27;20514;-70
2024/04/09 07:43:31;;;;;;;7.10;4.07;;;20.40;1.00;;;;;;5274969;27;20458;-70
2024/04/09 07:45:57;;;;;;;6.50;3.87;;;20.60;1.00;;;;;;5271959;27;20483;-71
2024/04/09 07:48:24;;;;;;;8.90;3.77;;;20.40;1.00;;;;;;5241769;27;20605;-70
2024/04/09 07:50:51;;;;;;;8.00;3.13;;;20.20;1.00;;;;;;5242077;27;20858;-71
2024/04/09 07:53:18;;;;;;;11.70;3.93;;;20.10;1.00;;;;;;5241456;27;20495;-71
2024/04/09 07:55:44;;;;;;;6.67;4.00;;;20.00;1.00;;;;;;5248883;27;20796;-71
2024/04/09 07:58:10;;;;;;;17.50;3.57;;;19.80;1.00;;;;;;5276611;27;20591;-72
2024/04/09 08:00:35;;;;;;;10.03;4.50;;;19.50;1.00;;;;;;5252385;27;20806;-71
2024/04/09 08:03:01;;;;;;;11.43;3.43;;;19.30;1.00;;;;;;5241663;27;20476;-72
2024/04/09 08:05:27;;;;;;;8.77;4.20;;;19.30;1.00;;;;;;5242356;27;20557;-70
2024/04/09 08:07:54;;;;;;;23.27;4.20;;;19.30;1.00;;;;;;5243209;27;20516;-71
2024/04/09 08:10:20;;;;;;;9.00;2.90;;;19.00;1.00;;;;;;5268570;27;20315;-71
2024/04/09 08:12:49;;;;;;;13.00;4.33;;;18.60;1.00;;;;;;5273220;27;20447;-71
2024/04/09 08:15:16;;;;;;;8.10;2.20;;;18.30;1.00;;;;;;5274794;27;20838;-72
2024/04/09 08:17:44;;;;;;;7.60;2.40;;;17.60;1.00;;;;;;5275350;27;20467;-69
2024/04/09 08:20:10;;;;;;;6.27;1.53;;;17.20;1.00;;;;;;5274495;27;20455;-70
2024/04/09 08:22:37;;;;;;;2.30;1.20;;;16.70;1.00;;;;;;5275096;27;20451;-70
2024/04/09 08:25:03;;;;;;;6.07;1.83;;;16.10;1.00;;;;;;5278922;27;20835;-71
2024/04/09 08:27:32;;;;;;;7.67;1.77;;;15.90;1.00;;;;;;5279439;21;20850;-71
2024/04/09 08:29:59;;;;;;;3.83;1.13;;;15.50;1.00;;;;;;5270113;27;21047;-71
2024/04/09 08:32:25;;;;;;;1.57;0.70;;;15.00;1.00;;;;;;5276707;27;20441;-71
2024/04/09 08:34:52;;;;;;;1.90;0.70;;;14.50;1.00;;;;;;5277452;27;20457;-71
2024/04/09 08:37:17;;;;;;;6.00;1.77;;;14.20;1.00;;;;;;5275276;27;20499;-71
2024/04/09 08:39:43;;;;;;;1.50;0.60;;;13.80;1.00;;;;;;5253711;27;20461;-71
2024/04/09 08:42:08;;;;;;;2.73;0.80;;;13.70;1.00;;;;;;5243528;27;20217;-71
2024/04/09 08:44:36;;;;;;;1.60;0.60;;;13.40;1.00;;;;;;5211662;27;20274;-70
2024/04/09 08:47:03;;;;;;;4.70;0.93;;;13.20;1.00;;;;;;5225990;27;20283;-69
2024/04/09 08:49:29;;;;;;;2.27;0.70;;;13.20;1.00;;;;;;5253126;27;21001;-69
2024/04/09 08:51:56;;;;;;;1.90;0.57;;;13.20;1.00;;;;;;5252946;27;20506;-71
2024/04/09 08:54:23;;;;;;;6.10;0.83;;;13.00;1.00;;;;;;5270821;27;20244;-71
2024/04/09 08:56:51;;;;;;;2.77;1.10;;;12.80;1.00;;;;;;5270122;27;20475;-70
2024/04/09 08:59:16;;;;;;;1.80;0.70;;;12.70;1.00;;;;;;5254987;27;20559;-70
2024/04/09 09:01:42;;;;;;;1.50;0.60;;;12.60;1.00;;;;;;5234470;27;20539;-71
2024/04/09 09:04:07;;;;;;;1.50;0.70;;;12.50;1.00;;;;;;5236245;27;20282;-71
2024/04/09 09:06:46;;;;;;;3.30;0.70;;;12.50;1.00;;;;;;5237722;27;20271;-71
2024/04/09 09:09:26;;;;;;;1.50;0.60;;;12.40;1.00;;;;;;5251259;27;20303;-71
2024/04/09 09:12:03;;;;;;;2.13;0.80;;;12.40;1.00;;;;;;5275507;27;20446;-71
2024/04/09 09:14:29;;;;;;;1.40;0.60;;;12.30;1.00;;;;;;5273936;27;20462;-70
2024/04/09 09:17:05;;;;;;;1.80;0.70;;;12.30;1.00;;;;;;5275364;27;20544;-71
2024/04/09 09:19:33;;;;;;;3.50;0.90;;;12.30;1.00;;;;;;5219566;27;20519;-70
2024/04/09 09:22:08;;;;;;;1.50;0.70;;;12.30;1.00;;;;;;5210887;27;21060;-72
2024/04/09 09:24:37;;;;;;;2.70;0.80;;;12.60;1.00;;;;;;5210404;27;20528;-74
2024/04/09 09:27:10;;;;;;;1.80;0.73;;;12.80;1.00;;;;;;5210806;27;20478;-73
2024/04/09 09:29:36;;;;;;;1.57;0.67;;;12.70;1.00;;;;;;5215048;27;20489;-72
2024/04/09 09:32:03;;;;;;;2.13;0.70;;;12.60;1.00;;;;;;5209883;27;20863;-72
2024/04/09 09:34:41;;;;;;;2.17;1.00;;;12.40;1.00;;;;;;5217410;27;20541;-72
2024/04/09 09:37:08;;;;;;;1.50;0.60;;;12.30;1.00;;;;;;5208303;27;20627;-73
2024/04/09 09:39:37;;;;;;;1.50;0.70;;;12.40;1.00;;;;;;5216862;27;20472;-72
2024/04/09 09:42:05;;;;;;;4.50;1.30;;;12.60;1.00;;;;;;5243454;27;20538;-72
2024/04/09 09:44:36;;;;;;;2.73;0.80;;;12.70;1.00;;;;;;5242619;27;20460;-71
2024/04/09 09:47:06;;;;;;;1.70;0.90;;;12.90;1.00;;;;;;5241538;27;20563;-74
2024/04/09 09:49:32;;;;;;;1.90;0.80;;;13.00;1.00;;;;;;5243206;27;21011;-71
2024/04/09 09:51:59;;;;;;;1.80;0.90;;;12.90;1.00;;;;;;5243008;27;20456;-73
2024/04/09 09:54:27;;;;;;;2.47;0.77;;;12.80;1.00;;;;;;5243048;27;20506;-72
2024/04/09 09:57:05;;;;;;;1.40;0.60;;;13.10;1.00;;;;;;5240890;27;20492;-73
2024/04/09 09:59:40;;;;;;;1.60;0.70;;;13.20;1.00;;;;;;5243168;27;20987;-70
2024/04/09 10:02:08;;;;;;;1.50;0.80;;;13.10;1.00;;;;;;5242946;27;20455;-71
2024/04/09 10:04:37;;;;;;;1.70;1.10;;;13.20;1.00;;;;;;5240681;27;20975;-71
2024/04/09 10:07:04;;;;;;;1.83;0.90;;;13.30;1.00;;;;;;5242884;27;20476;-72
2024/04/09 10:09:44;;;;;;;2.17;0.80;;;13.40;1.00;;;;;;5241186;27;21008;-72
2024/04/09 10:12:30;;;;;;;1.90;0.90;;;13.30;1.00;;;;;;5242519;27;20444;-70
2024/04/09 10:15:01;;;;;;;1.50;0.80;;;13.20;1.00;;;;;;5242530;27;20841;-72
2024/04/09 10:17:30;;;;;;;1.60;0.93;;;13.10;1.00;;;;;;5242491;27;20471;-72
2024/04/09 10:19:55;;;;;;;2.30;0.87;;;12.90;1.00;;;;;;5241175;27;20464;-71
2024/04/09 10:22:21;;;;;;;1.77;0.80;;;12.70;1.00;;;;;;5242809;27;20449;-74
2024/04/09 10:24:50;;;;;;;1.50;0.80;;;12.80;1.00;;;;;;5243943;27;20509;-73
2024/04/09 10:27:19;;;;;;;1.50;0.63;;;12.70;1.00;;;;;;5241841;27;20265;-72
2024/04/09 10:29:53;;;;;;;1.97;1.00;;;12.60;1.00;;;;;;5241494;27;20572;-72
2024/04/09 10:32:24;;;;;;;2.47;0.93;;;12.80;1.00;;;;;;5243818;27;20452;-71
2024/04/09 10:34:50;;;;;;;2.10;0.90;;;13.20;1.00;;;;;;5244027;27;20453;-71
2024/04/09 10:37:17;;;;;;;2.23;0.83;;;13.40;1.00;;;;;;5242042;27;20492;-69
2024/04/09 10:39:43;;;;;;;1.50;0.80;;;13.60;1.00;;;;;;5243292;27;20505;-70
2024/04/09 10:42:08;;;;;;;1.70;0.90;;;13.50;1.00;;;;;;5241216;27;20460;-70
2024/04/09 10:44:34;;;;;;;1.60;0.77;;;13.60;1.00;;;;;;5242376;27;20667;-70
2024/04/09 10:47:00;;;;;;;2.43;1.17;;;13.60;1.00;;;;;;5239761;27;20273;-71
2024/04/09 10:49:26;;;;;;;1.70;0.97;;;13.50;1.00;;;;;;5241279;27;20232;-71
2024/04/09 10:51:51;;;;;;;2.00;0.90;;;13.10;1.00;;;;;;5241989;27;21000;-71
2024/04/09 10:54:19;;;;;;;1.60;0.80;;;13.10;1.00;;;;;;5240765;27;20701;-70
2024/04/09 10:56:45;;;;;;;1.50;0.70;;;13.00;1.00;;;;;;5242620;27;20787;-70
2024/04/09 10:59:14;;;;;;;1.67;0.87;;;13.10;1.00;;;;;;5240773;27;20511;-69
2024/04/09 11:01:41;;;;;;;2.83;1.30;;;12.90;1.00;;;;;;5242422;27;20460;-71
2024/04/09 11:04:07;;;;;;;1.90;0.70;;;13.10;1.00;;;;;;5240834;27;20484;-72
2024/04/09 11:06:36;;;;;;;2.90;0.93;;;13.00;1.00;;;;;;5243003;27;20564;-71
2024/04/09 11:09:01;;;;;;;3.60;0.83;;;12.80;1.00;;;;;;5242267;27;20610;-71
2024/04/09 11:11:27;;;;;;;1.50;0.70;;;12.80;1.00;;;;;;5242210;27;20448;-70
2024/04/09 11:13:54;;;;;;;1.40;0.60;;;12.50;1.00;;;;;;5240115;27;20331;-70
2024/04/09 11:16:20;;;;;;;1.93;0.80;;;12.30;1.00;;;;;;5247558;27;20556;-70
2024/04/09 11:19:00;;;;;;;1.70;0.90;;;12.20;1.00;;;;;;5251399;27;20460;-70
2024/04/09 11:21:28;;;;;;;1.47;0.57;;;12.20;1.00;;;;;;5251860;27;20225;-71
2024/04/09 11:23:54;;;;;;;1.50;0.70;;;12.00;1.00;;;;;;5249788;27;20576;-71
2024/04/09 11:26:20;;;;;;;1.40;0.60;;;12.00;1.00;;;;;;5252714;27;20542;-70
2024/04/09 11:28:50;;;;;;;1.30;0.50;;;11.80;1.00;;;;;;5253667;27;20558;-72
2024/04/09 11:31:27;;;;;;;5.20;0.73;;;11.60;1.00;;;;;;5248898;27;20234;-70
2024/04/09 11:33:53;;;;;;;2.60;0.63;;;11.50;1.00;;;;;;5243883;27;20502;-70
2024/04/09 11:36:19;;;;;;;1.30;0.43;;;11.40;1.00;;;;;;5242546;27;20474;-70
2024/04/09 11:38:44;;;;;;;2.63;0.70;;;11.30;1.00;;;;;;5241901;27;20344;-74
2024/04/09 11:41:10;;;;;;;2.00;0.60;;;11.20;1.00;;;;;;5239505;27;20242;-70
2024/04/09 11:43:35;;;;;;;1.70;0.80;;;11.20;1.00;;;;;;5222901;27;20252;-69
2024/04/09 11:46:02;;;;;;;1.60;0.63;;;11.20;1.00;;;;;;5209195;27;20703;-69
2024/04/09 11:48:28;;;;;;;1.40;0.50;;;11.30;1.00;;;;;;5215814;27;20773;-68
2024/04/09 11:50:54;;;;;;;2.03;0.60;;;11.40;1.00;;;;;;5225930;27;20475;-71
2024/04/09 11:53:19;;;;;;;2.23;0.97;;;11.20;1.00;;;;;;5240301;27;20795;-69
2024/04/09 11:55:45;;;;;;;1.57;0.60;;;11.00;1.00;;;;;;5238261;27;20284;-70
2024/04/09 11:58:13;;;;;;;1.80;0.60;;;10.90;1.00;;;;;;5235883;27;20367;-74
2024/04/09 12:00:39;;;;;;;2.07;0.97;;;10.80;1.00;;;;;;5242989;27;20314;-68
2024/04/09 12:03:05;;;;;;;1.40;0.50;;;10.90;1.00;;;;;;5243575;27;20591;-69
2024/04/09 12:05:31;;;;;;;1.30;0.50;;;10.80;1.00;;;;;;5244142;27;20310;-69
2024/04/09 12:07:59;;;;;;;1.60;0.60;;;10.70;1.00;;;;;;5243920;27;20243;-70
2024/04/09 12:10:25;;;;;;;1.40;0.50;;;10.50;1.00;;;;;;5243768;27;20518;-72
2024/04/09 12:12:51;;;;;;;1.57;0.50;;;10.50;1.00;;;;;;5245566;27;20470;-70
2024/04/09 12:15:18;;;;;;;3.10;0.67;;;10.40;1.00;;;;;;5246695;27;20965;-70
2024/04/09 12:17:45;;;;;;;1.40;0.50;;;10.40;1.00;;;;;;5241406;27;20927;-70
2024/04/09 12:20:12;;;;;;;2.10;0.70;;;10.40;1.00;;;;;;5243450;27;20508;-70
2024/04/09 12:22:38;;;;;;;1.90;0.70;;;10.40;1.00;;;;;;5240692;27;20553;-69
2024/04/09 12:25:04;;;;;;;2.57;0.53;;;10.20;1.00;;;;;;5243292;27;20459;-69
2024/04/09 12:27:30;;;;;;;1.30;0.50;;;10.30;1.00;;;;;;5243552;27;20475;-69
2024/04/09 12:29:56;;;;;;;1.63;0.53;;;10.40;1.00;;;;;;5241655;27;20462;-70
2024/04/09 12:32:22;;;;;;;1.40;0.50;;;10.40;1.00;;;;;;5243845;27;20859;-72
2024/04/09 12:34:48;;;;;;;1.83;0.60;;;10.30;1.00;;;;;;5244426;27;20306;-71
2024/04/09 12:37:14;;;;;;;2.60;0.57;;;10.30;1.00;;;;;;5243423;27;20255;-69
2024/04/09 12:39:40;;;;;;;1.70;0.70;;;10.30;1.00;;;;;;5243642;27;20564;-70
2024/04/09 12:42:07;;;;;;;2.23;0.57;;;10.20;1.00;;;;;;5243914;27;20451;-70
2024/04/09 12:44:33;;;;;;;1.53;0.53;;;10.20;1.00;;;;;;5243257;27;20462;-70
2024/04/09 12:46:59;;;;;;;1.43;0.70;;;10.30;1.00;;;;;;5241635;27;20486;-70
2024/04/09 12:49:28;;;;;;;1.40;0.53;;;10.20;1.00;;;;;;5243779;27;20579;-69
2024/04/09 12:51:54;;;;;;;1.40;0.50;;;10.10;1.00;;;;;;5243703;27;20529;-70